sensor_id;sensor_type;location;lat;lon;timestamp;P1;durP1;ratioP1;P2;durP2;ratioP2
46116;SDS011;32591;48.102;11.772;2023-03-31T00:01:58;6.95;;;3.38;;
46116;SDS011;32591;48.102;11.772;2023-03-31T00:04:26;7.60;;;3.92;;
46116;SDS011;32591;48.102;11.772;2023-03-31T00:06:56;8.52;;;3.85;;
46116;SDS011;32591;48.102;11.772;2023-03-31T00:09:24;9.20;;;3.72;;
46116;SDS011;32591;48.102;11.772;2023-03-31T00:11:53;9.88;;;3.80;;
46116;SDS011;32591;48.102;11.772;2023-03-31T00:14:20;6.57;;;3.85;;
46116;SDS011;32591;48.102;11.772;2023-03-31T00:16:47;6.68;;;4.00;;
46116;SDS011;32591;48.102;11.772;2023-03-31T00:19:14;5.60;;;3.88;;
46116;SDS011;32591;48.102;11.772;2023-03-31T00:21:44;7.50;;;4.18;;
46116;SDS011;32591;48.102;11.772;2023-03-31T00:24:12;7.38;;;3.75;;
46116;SDS011;32591;48.102;11.772;2023-03-31T00:26:42;7.07;;;3.60;;
46116;SDS011;32591;48.102;11.772;2023-03-31T00:29:10;7.50;;;3.90;;
46116;SDS011;32591;48.102;11.772;2023-03-31T00:31:38;4.97;;;3.60;;
46116;SDS011;32591;48.102;11.772;2023-03-31T00:34:06;6.78;;;4.25;;
46116;SDS011;32591;48.102;11.772;2023-03-31T00:36:33;5.05;;;3.30;;
46116;SDS011;32591;48.102;11.772;2023-03-31T00:39:09;6.05;;;3.20;;
46116;SDS011;32591;48.102;11.772;2023-03-31T00:41:37;6.45;;;3.40;;
46116;SDS011;32591;48.102;11.772;2023-03-31T00:44:07;10.38;;;3.85;;
46116;SDS011;32591;48.102;11.772;2023-03-31T00:46:43;8.65;;;4.00;;
46116;SDS011;32591;48.102;11.772;2023-03-31T00:49:18;7.43;;;3.10;;
46116;SDS011;32591;48.102;11.772;2023-03-31T00:51:53;5.03;;;3.38;;
46116;SDS011;32591;48.102;11.772;2023-03-31T00:54:23;8.35;;;3.53;;
46116;SDS011;32591;48.102;11.772;2023-03-31T00:56:51;6.53;;;4.30;;
46116;SDS011;32591;48.102;11.772;2023-03-31T00:59:26;8.23;;;3.90;;
46116;SDS011;32591;48.102;11.772;2023-03-31T01:01:56;6.78;;;3.55;;
46116;SDS011;32591;48.102;11.772;2023-03-31T01:04:26;6.22;;;3.40;;
46116;SDS011;32591;48.102;11.772;2023-03-31T01:07:02;6.38;;;4.03;;
46116;SDS011;32591;48.102;11.772;2023-03-31T01:09:34;9.00;;;4.03;;
46116;SDS011;32591;48.102;11.772;2023-03-31T01:12:03;6.00;;;3.78;;
46116;SDS011;32591;48.102;11.772;2023-03-31T01:14:35;4.72;;;3.63;;
46116;SDS011;32591;48.102;11.772;2023-03-31T01:17:02;5.43;;;3.65;;
46116;SDS011;32591;48.102;11.772;2023-03-31T01:19:32;6.47;;;3.85;;
46116;SDS011;32591;48.102;11.772;2023-03-31T01:25:54;7.78;;;4.07;;
46116;SDS011;32591;48.102;11.772;2023-03-31T01:29:17;6.03;;;3.38;;
46116;SDS011;32591;48.102;11.772;2023-03-31T01:35:41;6.13;;;3.47;;
46116;SDS011;32591;48.102;11.772;2023-03-31T01:38:50;5.38;;;3.80;;
46116;SDS011;32591;48.102;11.772;2023-03-31T01:41:57;6.28;;;3.58;;
46116;SDS011;32591;48.102;11.772;2023-03-31T01:44:32;7.45;;;3.80;;
46116;SDS011;32591;48.102;11.772;2023-03-31T01:47:09;6.20;;;3.70;;
46116;SDS011;32591;48.102;11.772;2023-03-31T01:49:43;7.10;;;4.07;;
46116;SDS011;32591;48.102;11.772;2023-03-31T01:52:18;6.10;;;3.92;;
46116;SDS011;32591;48.102;11.772;2023-03-31T01:54:50;6.50;;;3.63;;
46116;SDS011;32591;48.102;11.772;2023-03-31T01:57:26;11.60;;;4.45;;
46116;SDS011;32591;48.102;11.772;2023-03-31T02:00:00;6.05;;;3.63;;
46116;SDS011;32591;48.102;11.772;2023-03-31T02:02:35;6.85;;;4.00;;
46116;SDS011;32591;48.102;11.772;2023-03-31T02:05:05;7.60;;;4.45;;
46116;SDS011;32591;48.102;11.772;2023-03-31T02:07:38;5.10;;;3.53;;
46116;SDS011;32591;48.102;11.772;2023-03-31T02:10:12;6.05;;;3.83;;
46116;SDS011;32591;48.102;11.772;2023-03-31T02:12:42;6.47;;;3.88;;
46116;SDS011;32591;48.102;11.772;2023-03-31T02:15:11;7.05;;;3.38;;
46116;SDS011;32591;48.102;11.772;2023-03-31T02:17:44;9.32;;;4.03;;
46116;SDS011;32591;48.102;11.772;2023-03-31T02:20:15;6.18;;;3.78;;
46116;SDS011;32591;48.102;11.772;2023-03-31T02:22:45;8.20;;;3.90;;
46116;SDS011;32591;48.102;11.772;2023-03-31T02:25:16;7.65;;;3.80;;
46116;SDS011;32591;48.102;11.772;2023-03-31T02:27:50;7.05;;;3.95;;
46116;SDS011;32591;48.102;11.772;2023-03-31T02:30:21;8.18;;;4.32;;
46116;SDS011;32591;48.102;11.772;2023-03-31T02:32:49;7.25;;;4.03;;
46116;SDS011;32591;48.102;11.772;2023-03-31T02:35:18;8.30;;;3.55;;
46116;SDS011;32591;48.102;11.772;2023-03-31T02:37:47;6.63;;;3.63;;
46116;SDS011;32591;48.102;11.772;2023-03-31T02:40:16;6.65;;;3.75;;
46116;SDS011;32591;48.102;11.772;2023-03-31T02:42:45;8.38;;;4.05;;
46116;SDS011;32591;48.102;11.772;2023-03-31T02:48:08;7.38;;;4.00;;
46116;SDS011;32591;48.102;11.772;2023-03-31T02:54:15;6.32;;;3.60;;
46116;SDS011;32591;48.102;11.772;2023-03-31T02:57:08;9.43;;;4.53;;
46116;SDS011;32591;48.102;11.772;2023-03-31T02:59:55;6.72;;;4.07;;
46116;SDS011;32591;48.102;11.772;2023-03-31T03:02:36;9.30;;;4.70;;
46116;SDS011;32591;48.102;11.772;2023-03-31T03:05:18;6.60;;;4.18;;
46116;SDS011;32591;48.102;11.772;2023-03-31T03:07:55;5.88;;;4.30;;
46116;SDS011;32591;48.102;11.772;2023-03-31T03:10:33;8.48;;;4.00;;
46116;SDS011;32591;48.102;11.772;2023-03-31T03:13:14;6.13;;;4.43;;
46116;SDS011;32591;48.102;11.772;2023-03-31T03:15:48;6.05;;;4.13;;
46116;SDS011;32591;48.102;11.772;2023-03-31T03:18:22;10.68;;;4.38;;
46116;SDS011;32591;48.102;11.772;2023-03-31T03:20:49;6.22;;;4.30;;
46116;SDS011;32591;48.102;11.772;2023-03-31T03:23:17;8.23;;;4.35;;
46116;SDS011;32591;48.102;11.772;2023-03-31T03:25:44;7.10;;;4.30;;
46116;SDS011;32591;48.102;11.772;2023-03-31T03:28:12;7.45;;;4.30;;
46116;SDS011;32591;48.102;11.772;2023-03-31T03:33:05;9.43;;;4.25;;
46116;SDS011;32591;48.102;11.772;2023-03-31T03:35:34;10.05;;;4.55;;
46116;SDS011;32591;48.102;11.772;2023-03-31T03:38:01;10.30;;;4.18;;
46116;SDS011;32591;48.102;11.772;2023-03-31T03:42:55;6.43;;;4.13;;
46116;SDS011;32591;48.102;11.772;2023-03-31T03:47:48;9.77;;;4.88;;
46116;SDS011;32591;48.102;11.772;2023-03-31T03:50:15;8.40;;;4.63;;
46116;SDS011;32591;48.102;11.772;2023-03-31T03:52:44;11.82;;;4.88;;
46116;SDS011;32591;48.102;11.772;2023-03-31T03:55:11;11.15;;;4.72;;
46116;SDS011;32591;48.102;11.772;2023-03-31T03:57:38;12.07;;;4.85;;
46116;SDS011;32591;48.102;11.772;2023-03-31T04:00:05;8.05;;;4.55;;
46116;SDS011;32591;48.102;11.772;2023-03-31T04:02:36;8.48;;;4.30;;
46116;SDS011;32591;48.102;11.772;2023-03-31T04:05:03;10.18;;;5.15;;
46116;SDS011;32591;48.102;11.772;2023-03-31T04:07:30;7.50;;;4.63;;
46116;SDS011;32591;48.102;11.772;2023-03-31T04:09:59;10.25;;;5.32;;
46116;SDS011;32591;48.102;11.772;2023-03-31T04:12:26;8.10;;;4.60;;
46116;SDS011;32591;48.102;11.772;2023-03-31T04:14:52;10.00;;;5.45;;
46116;SDS011;32591;48.102;11.772;2023-03-31T04:17:19;10.10;;;4.55;;
46116;SDS011;32591;48.102;11.772;2023-03-31T04:19:57;9.25;;;4.82;;
46116;SDS011;32591;48.102;11.772;2023-03-31T04:22:26;7.18;;;5.18;;
46116;SDS011;32591;48.102;11.772;2023-03-31T04:25:00;11.15;;;4.60;;
46116;SDS011;32591;48.102;11.772;2023-03-31T04:27:35;6.88;;;4.60;;
46116;SDS011;32591;48.102;11.772;2023-03-31T04:30:02;9.35;;;4.47;;
46116;SDS011;32591;48.102;11.772;2023-03-31T04:32:33;14.52;;;5.13;;
46116;SDS011;32591;48.102;11.772;2023-03-31T04:35:00;8.38;;;4.35;;
46116;SDS011;32591;48.102;11.772;2023-03-31T04:37:27;8.27;;;5.00;;
46116;SDS011;32591;48.102;11.772;2023-03-31T04:39:58;7.55;;;4.88;;
46116;SDS011;32591;48.102;11.772;2023-03-31T04:42:33;6.28;;;4.38;;
46116;SDS011;32591;48.102;11.772;2023-03-31T04:45:00;10.98;;;5.15;;
46116;SDS011;32591;48.102;11.772;2023-03-31T04:47:27;9.98;;;4.80;;
46116;SDS011;32591;48.102;11.772;2023-03-31T04:49:54;10.25;;;4.45;;
46116;SDS011;32591;48.102;11.772;2023-03-31T04:52:21;6.07;;;4.63;;
46116;SDS011;32591;48.102;11.772;2023-03-31T04:54:48;7.05;;;4.07;;
46116;SDS011;32591;48.102;11.772;2023-03-31T04:57:16;7.80;;;4.50;;
46116;SDS011;32591;48.102;11.772;2023-03-31T04:59:44;8.90;;;4.60;;
46116;SDS011;32591;48.102;11.772;2023-03-31T05:02:11;12.35;;;4.72;;
46116;SDS011;32591;48.102;11.772;2023-03-31T05:04:38;8.02;;;4.93;;
46116;SDS011;32591;48.102;11.772;2023-03-31T05:07:05;11.48;;;5.75;;
46116;SDS011;32591;48.102;11.772;2023-03-31T05:09:32;8.02;;;5.03;;
46116;SDS011;32591;48.102;11.772;2023-03-31T05:11:59;11.75;;;5.82;;
46116;SDS011;32591;48.102;11.772;2023-03-31T05:14:27;10.10;;;4.88;;
46116;SDS011;32591;48.102;11.772;2023-03-31T05:16:54;8.30;;;4.90;;
46116;SDS011;32591;48.102;11.772;2023-03-31T05:19:23;8.55;;;5.88;;
46116;SDS011;32591;48.102;11.772;2023-03-31T05:21:50;8.25;;;4.80;;
46116;SDS011;32591;48.102;11.772;2023-03-31T05:24:17;8.70;;;6.20;;
46116;SDS011;32591;48.102;11.772;2023-03-31T05:26:44;12.77;;;7.72;;
46116;SDS011;32591;48.102;11.772;2023-03-31T05:29:16;10.50;;;6.07;;
46116;SDS011;32591;48.102;11.772;2023-03-31T05:31:45;11.32;;;5.53;;
46116;SDS011;32591;48.102;11.772;2023-03-31T05:34:12;9.27;;;6.13;;
46116;SDS011;32591;48.102;11.772;2023-03-31T05:36:41;9.75;;;4.95;;
46116;SDS011;32591;48.102;11.772;2023-03-31T05:39:08;11.00;;;4.82;;
46116;SDS011;32591;48.102;11.772;2023-03-31T05:41:35;8.55;;;4.30;;
46116;SDS011;32591;48.102;11.772;2023-03-31T05:44:02;9.85;;;4.97;;
46116;SDS011;32591;48.102;11.772;2023-03-31T05:46:29;9.35;;;4.43;;
46116;SDS011;32591;48.102;11.772;2023-03-31T05:48:58;6.10;;;4.53;;
46116;SDS011;32591;48.102;11.772;2023-03-31T05:51:25;8.98;;;4.22;;
46116;SDS011;32591;48.102;11.772;2023-03-31T05:53:52;8.30;;;5.03;;
46116;SDS011;32591;48.102;11.772;2023-03-31T05:56:20;6.22;;;4.65;;
46116;SDS011;32591;48.102;11.772;2023-03-31T05:58:47;8.20;;;4.72;;
46116;SDS011;32591;48.102;11.772;2023-03-31T06:01:15;9.52;;;4.10;;
46116;SDS011;32591;48.102;11.772;2023-03-31T06:03:44;7.20;;;4.57;;
46116;SDS011;32591;48.102;11.772;2023-03-31T06:06:13;9.85;;;4.55;;
46116;SDS011;32591;48.102;11.772;2023-03-31T06:08:40;8.00;;;4.93;;
46116;SDS011;32591;48.102;11.772;2023-03-31T06:11:09;10.73;;;4.90;;
46116;SDS011;32591;48.102;11.772;2023-03-31T06:13:38;9.65;;;4.50;;
46116;SDS011;32591;48.102;11.772;2023-03-31T06:16:06;8.70;;;4.97;;
46116;SDS011;32591;48.102;11.772;2023-03-31T06:18:34;10.52;;;4.78;;
46116;SDS011;32591;48.102;11.772;2023-03-31T06:21:01;8.63;;;5.30;;
46116;SDS011;32591;48.102;11.772;2023-03-31T06:23:30;5.80;;;4.22;;
46116;SDS011;32591;48.102;11.772;2023-03-31T06:25:59;8.75;;;4.57;;
46116;SDS011;32591;48.102;11.772;2023-03-31T06:28:27;8.15;;;5.82;;
46116;SDS011;32591;48.102;11.772;2023-03-31T06:30:58;7.30;;;4.47;;
46116;SDS011;32591;48.102;11.772;2023-03-31T06:33:27;7.80;;;4.15;;
46116;SDS011;32591;48.102;11.772;2023-03-31T06:35:54;11.05;;;4.75;;
46116;SDS011;32591;48.102;11.772;2023-03-31T06:38:21;9.15;;;4.85;;
46116;SDS011;32591;48.102;11.772;2023-03-31T06:40:50;8.02;;;5.05;;
46116;SDS011;32591;48.102;11.772;2023-03-31T06:43:17;8.50;;;5.05;;
46116;SDS011;32591;48.102;11.772;2023-03-31T06:45:44;10.65;;;5.45;;
46116;SDS011;32591;48.102;11.772;2023-03-31T06:48:11;9.50;;;4.97;;
46116;SDS011;32591;48.102;11.772;2023-03-31T06:50:40;11.77;;;5.53;;
46116;SDS011;32591;48.102;11.772;2023-03-31T06:53:07;10.55;;;5.45;;
46116;SDS011;32591;48.102;11.772;2023-03-31T06:55:35;14.32;;;4.88;;
46116;SDS011;32591;48.102;11.772;2023-03-31T06:58:04;8.50;;;4.22;;
46116;SDS011;32591;48.102;11.772;2023-03-31T07:00:31;10.15;;;4.65;;
46116;SDS011;32591;48.102;11.772;2023-03-31T07:02:59;7.53;;;4.53;;
46116;SDS011;32591;48.102;11.772;2023-03-31T07:05:28;7.50;;;4.75;;
46116;SDS011;32591;48.102;11.772;2023-03-31T07:07:56;7.18;;;4.45;;
46116;SDS011;32591;48.102;11.772;2023-03-31T07:10:25;11.07;;;4.63;;
46116;SDS011;32591;48.102;11.772;2023-03-31T07:12:54;6.15;;;4.38;;
46116;SDS011;32591;48.102;11.772;2023-03-31T07:15:23;6.95;;;4.43;;
46116;SDS011;32591;48.102;11.772;2023-03-31T07:17:54;7.85;;;4.38;;
46116;SDS011;32591;48.102;11.772;2023-03-31T07:20:26;5.72;;;4.10;;
46116;SDS011;32591;48.102;11.772;2023-03-31T07:22:54;8.65;;;4.40;;
46116;SDS011;32591;48.102;11.772;2023-03-31T07:25:22;7.43;;;4.22;;
46116;SDS011;32591;48.102;11.772;2023-03-31T07:27:49;7.75;;;4.80;;
46116;SDS011;32591;48.102;11.772;2023-03-31T07:30:17;7.45;;;4.20;;
46116;SDS011;32591;48.102;11.772;2023-03-31T07:32:47;10.13;;;5.32;;
46116;SDS011;32591;48.102;11.772;2023-03-31T07:35:16;10.07;;;6.07;;
46116;SDS011;32591;48.102;11.772;2023-03-31T07:37:45;9.45;;;5.25;;
46116;SDS011;32591;48.102;11.772;2023-03-31T07:40:14;6.93;;;4.38;;
46116;SDS011;32591;48.102;11.772;2023-03-31T07:42:44;12.73;;;5.03;;
46116;SDS011;32591;48.102;11.772;2023-03-31T07:45:13;12.10;;;5.70;;
46116;SDS011;32591;48.102;11.772;2023-03-31T07:47:42;11.68;;;4.65;;
46116;SDS011;32591;48.102;11.772;2023-03-31T07:50:12;7.85;;;4.88;;
46116;SDS011;32591;48.102;11.772;2023-03-31T07:52:40;8.98;;;4.47;;
46116;SDS011;32591;48.102;11.772;2023-03-31T07:55:08;8.77;;;5.07;;
46116;SDS011;32591;48.102;11.772;2023-03-31T07:57:35;9.90;;;4.55;;
46116;SDS011;32591;48.102;11.772;2023-03-31T08:00:05;9.88;;;4.78;;
46116;SDS011;32591;48.102;11.772;2023-03-31T08:02:36;9.75;;;5.57;;
46116;SDS011;32591;48.102;11.772;2023-03-31T08:05:04;7.65;;;4.07;;
46116;SDS011;32591;48.102;11.772;2023-03-31T08:07:33;8.75;;;5.05;;
46116;SDS011;32591;48.102;11.772;2023-03-31T08:10:01;7.82;;;4.82;;
46116;SDS011;32591;48.102;11.772;2023-03-31T08:12:30;8.00;;;4.50;;
46116;SDS011;32591;48.102;11.772;2023-03-31T08:14:57;10.48;;;4.93;;
46116;SDS011;32591;48.102;11.772;2023-03-31T08:17:25;8.65;;;4.47;;
46116;SDS011;32591;48.102;11.772;2023-03-31T08:19:52;9.15;;;3.95;;
46116;SDS011;32591;48.102;11.772;2023-03-31T08:22:19;6.88;;;4.32;;
46116;SDS011;32591;48.102;11.772;2023-03-31T08:24:48;11.90;;;4.90;;
46116;SDS011;32591;48.102;11.772;2023-03-31T08:27:15;8.57;;;4.43;;
46116;SDS011;32591;48.102;11.772;2023-03-31T08:29:42;9.13;;;4.38;;
46116;SDS011;32591;48.102;11.772;2023-03-31T08:32:09;6.72;;;4.45;;
46116;SDS011;32591;48.102;11.772;2023-03-31T08:34:36;8.13;;;4.20;;
46116;SDS011;32591;48.102;11.772;2023-03-31T08:37:06;8.52;;;4.03;;
46116;SDS011;32591;48.102;11.772;2023-03-31T08:39:33;9.77;;;4.68;;
46116;SDS011;32591;48.102;11.772;2023-03-31T08:42:03;6.47;;;4.60;;
46116;SDS011;32591;48.102;11.772;2023-03-31T08:44:37;10.30;;;4.88;;
46116;SDS011;32591;48.102;11.772;2023-03-31T08:47:09;5.82;;;4.60;;
46116;SDS011;32591;48.102;11.772;2023-03-31T08:49:43;6.65;;;4.20;;
46116;SDS011;32591;48.102;11.772;2023-03-31T08:52:14;7.30;;;4.00;;
46116;SDS011;32591;48.102;11.772;2023-03-31T08:54:48;10.52;;;4.80;;
46116;SDS011;32591;48.102;11.772;2023-03-31T08:57:22;6.85;;;4.75;;
46116;SDS011;32591;48.102;11.772;2023-03-31T08:59:53;7.93;;;4.57;;
46116;SDS011;32591;48.102;11.772;2023-03-31T09:02:24;10.10;;;5.32;;
46116;SDS011;32591;48.102;11.772;2023-03-31T09:05:00;9.30;;;5.07;;
46116;SDS011;32591;48.102;11.772;2023-03-31T09:08:05;10.35;;;4.95;;
46116;SDS011;32591;48.102;11.772;2023-03-31T09:13:21;7.45;;;4.65;;
46116;SDS011;32591;48.102;11.772;2023-03-31T09:16:04;10.50;;;5.00;;
46116;SDS011;32591;48.102;11.772;2023-03-31T09:18:37;6.65;;;4.35;;
46116;SDS011;32591;48.102;11.772;2023-03-31T09:21:11;8.50;;;3.47;;
46116;SDS011;32591;48.102;11.772;2023-03-31T09:23:45;5.78;;;4.03;;
46116;SDS011;32591;48.102;11.772;2023-03-31T09:26:21;7.60;;;4.32;;
46116;SDS011;32591;48.102;11.772;2023-03-31T09:28:54;8.13;;;3.60;;
46116;SDS011;32591;48.102;11.772;2023-03-31T09:31:25;8.50;;;3.55;;
46116;SDS011;32591;48.102;11.772;2023-03-31T09:33:54;6.60;;;3.63;;
46116;SDS011;32591;48.102;11.772;2023-03-31T09:36:26;10.73;;;3.63;;
46116;SDS011;32591;48.102;11.772;2023-03-31T09:38:54;6.78;;;3.47;;
46116;SDS011;32591;48.102;11.772;2023-03-31T09:41:21;6.20;;;4.15;;
46116;SDS011;32591;48.102;11.772;2023-03-31T09:43:48;6.38;;;4.20;;
46116;SDS011;32591;48.102;11.772;2023-03-31T09:46:18;7.80;;;4.10;;
46116;SDS011;32591;48.102;11.772;2023-03-31T09:48:53;6.97;;;3.65;;
46116;SDS011;32591;48.102;11.772;2023-03-31T09:51:26;8.48;;;3.80;;
46116;SDS011;32591;48.102;11.772;2023-03-31T09:53:59;6.90;;;3.50;;
46116;SDS011;32591;48.102;11.772;2023-03-31T09:56:36;7.15;;;3.67;;
46116;SDS011;32591;48.102;11.772;2023-03-31T09:59:15;9.75;;;3.90;;
46116;SDS011;32591;48.102;11.772;2023-03-31T10:01:46;6.63;;;4.00;;
46116;SDS011;32591;48.102;11.772;2023-03-31T10:04:18;6.28;;;3.45;;
46116;SDS011;32591;48.102;11.772;2023-03-31T10:06:48;5.82;;;3.80;;
46116;SDS011;32591;48.102;11.772;2023-03-31T10:09:18;7.80;;;3.53;;
46116;SDS011;32591;48.102;11.772;2023-03-31T10:11:51;7.68;;;3.97;;
46116;SDS011;32591;48.102;11.772;2023-03-31T10:14:25;5.97;;;3.10;;
46116;SDS011;32591;48.102;11.772;2023-03-31T10:19:32;6.85;;;3.83;;
46116;SDS011;32591;48.102;11.772;2023-03-31T10:22:02;6.43;;;3.70;;
46116;SDS011;32591;48.102;11.772;2023-03-31T10:24:35;7.45;;;3.50;;
46116;SDS011;32591;48.102;11.772;2023-03-31T10:27:05;6.53;;;3.80;;
46116;SDS011;32591;48.102;11.772;2023-03-31T10:29:47;5.85;;;3.25;;
46116;SDS011;32591;48.102;11.772;2023-03-31T10:32:20;5.47;;;3.13;;
46116;SDS011;32591;48.102;11.772;2023-03-31T10:34:50;12.57;;;4.63;;
46116;SDS011;32591;48.102;11.772;2023-03-31T10:37:18;7.18;;;3.50;;
46116;SDS011;32591;48.102;11.772;2023-03-31T10:39:55;6.00;;;2.85;;
46116;SDS011;32591;48.102;11.772;2023-03-31T10:42:23;5.18;;;3.03;;
46116;SDS011;32591;48.102;11.772;2023-03-31T10:44:53;5.50;;;2.80;;
46116;SDS011;32591;48.102;11.772;2023-03-31T10:47:39;5.47;;;3.15;;
46116;SDS011;32591;48.102;11.772;2023-03-31T10:50:12;7.50;;;3.67;;
46116;SDS011;32591;48.102;11.772;2023-03-31T10:52:43;9.15;;;3.50;;
46116;SDS011;32591;48.102;11.772;2023-03-31T10:55:13;3.55;;;2.60;;
46116;SDS011;32591;48.102;11.772;2023-03-31T10:57:48;5.45;;;3.30;;
46116;SDS011;32591;48.102;11.772;2023-03-31T11:00:23;6.93;;;3.30;;
46116;SDS011;32591;48.102;11.772;2023-03-31T11:03:02;4.50;;;3.30;;
46116;SDS011;32591;48.102;11.772;2023-03-31T11:06:19;5.82;;;3.30;;
46116;SDS011;32591;48.102;11.772;2023-03-31T11:08:54;4.18;;;3.00;;
46116;SDS011;32591;48.102;11.772;2023-03-31T11:11:40;4.97;;;3.55;;
46116;SDS011;32591;48.102;11.772;2023-03-31T11:14:24;6.45;;;3.10;;
46116;SDS011;32591;48.102;11.772;2023-03-31T11:17:03;5.70;;;3.00;;
46116;SDS011;32591;48.102;11.772;2023-03-31T11:19:44;4.95;;;3.35;;
46116;SDS011;32591;48.102;11.772;2023-03-31T11:22:20;5.57;;;3.00;;
46116;SDS011;32591;48.102;11.772;2023-03-31T11:25:03;4.25;;;2.83;;
46116;SDS011;32591;48.102;11.772;2023-03-31T11:27:54;4.22;;;2.92;;
46116;SDS011;32591;48.102;11.772;2023-03-31T11:30:59;6.63;;;3.60;;
46116;SDS011;32591;48.102;11.772;2023-03-31T11:33:44;6.28;;;3.28;;
46116;SDS011;32591;48.102;11.772;2023-03-31T11:36:35;7.40;;;3.75;;
46116;SDS011;32591;48.102;11.772;2023-03-31T11:39:24;5.05;;;3.00;;
46116;SDS011;32591;48.102;11.772;2023-03-31T11:42:06;3.83;;;2.35;;
46116;SDS011;32591;48.102;11.772;2023-03-31T11:44:40;4.15;;;1.55;;
46116;SDS011;32591;48.102;11.772;2023-03-31T11:47:12;3.88;;;1.83;;
46116;SDS011;32591;48.102;11.772;2023-03-31T11:49:46;6.57;;;1.65;;
46116;SDS011;32591;48.102;11.772;2023-03-31T11:52:20;4.50;;;1.75;;
46116;SDS011;32591;48.102;11.772;2023-03-31T11:54:54;8.77;;;5.93;;
46116;SDS011;32591;48.102;11.772;2023-03-31T11:57:24;11.98;;;7.78;;
46116;SDS011;32591;48.102;11.772;2023-03-31T11:59:57;14.38;;;9.85;;
46116;SDS011;32591;48.102;11.772;2023-03-31T12:02:35;12.52;;;8.65;;
46116;SDS011;32591;48.102;11.772;2023-03-31T12:05:10;5.63;;;3.90;;
46116;SDS011;32591;48.102;11.772;2023-03-31T12:07:42;3.03;;;1.83;;
46116;SDS011;32591;48.102;11.772;2023-03-31T12:10:17;2.33;;;1.20;;
46116;SDS011;32591;48.102;11.772;2023-03-31T12:12:48;7.03;;;1.70;;
46116;SDS011;32591;48.102;11.772;2023-03-31T12:15:21;6.03;;;1.40;;
46116;SDS011;32591;48.102;11.772;2023-03-31T12:17:55;2.50;;;1.00;;
46116;SDS011;32591;48.102;11.772;2023-03-31T12:20:31;4.22;;;1.40;;
46116;SDS011;32591;48.102;11.772;2023-03-31T12:23:04;2.28;;;1.05;;
46116;SDS011;32591;48.102;11.772;2023-03-31T12:25:41;2.28;;;1.33;;
46116;SDS011;32591;48.102;11.772;2023-03-31T12:28:13;3.33;;;1.33;;
46116;SDS011;32591;48.102;11.772;2023-03-31T12:30:42;1.75;;;1.23;;
46116;SDS011;32591;48.102;11.772;2023-03-31T12:33:13;3.05;;;1.50;;
46116;SDS011;32591;48.102;11.772;2023-03-31T12:35:48;2.70;;;1.80;;
46116;SDS011;32591;48.102;11.772;2023-03-31T12:38:38;3.55;;;1.40;;
46116;SDS011;32591;48.102;11.772;2023-03-31T12:41:18;3.30;;;2.13;;
46116;SDS011;32591;48.102;11.772;2023-03-31T12:43:56;3.65;;;2.47;;
46116;SDS011;32591;48.102;11.772;2023-03-31T12:47:02;2.53;;;1.50;;
46116;SDS011;32591;48.102;11.772;2023-03-31T12:50:14;3.83;;;2.13;;
46116;SDS011;32591;48.102;11.772;2023-03-31T12:52:56;5.05;;;2.30;;
46116;SDS011;32591;48.102;11.772;2023-03-31T12:55:33;4.45;;;2.35;;
46116;SDS011;32591;48.102;11.772;2023-03-31T13:01:12;4.32;;;2.35;;
46116;SDS011;32591;48.102;11.772;2023-03-31T13:06:52;5.40;;;2.75;;
46116;SDS011;32591;48.102;11.772;2023-03-31T13:09:43;4.43;;;2.53;;
46116;SDS011;32591;48.102;11.772;2023-03-31T13:12:15;3.80;;;1.90;;
46116;SDS011;32591;48.102;11.772;2023-03-31T13:14:46;4.75;;;1.90;;
46116;SDS011;32591;48.102;11.772;2023-03-31T13:17:31;2.45;;;1.10;;
46116;SDS011;32591;48.102;11.772;2023-03-31T13:20:23;1.88;;;1.00;;
46116;SDS011;32591;48.102;11.772;2023-03-31T13:23:01;1.48;;;1.00;;
46116;SDS011;32591;48.102;11.772;2023-03-31T13:25:32;3.20;;;2.35;;
46116;SDS011;32591;48.102;11.772;2023-03-31T13:31:08;1.17;;;0.65;;
46116;SDS011;32591;48.102;11.772;2023-03-31T13:33:43;7.30;;;1.13;;
46116;SDS011;32591;48.102;11.772;2023-03-31T13:36:25;1.85;;;0.85;;
46116;SDS011;32591;48.102;11.772;2023-03-31T13:42:50;1.27;;;0.82;;
46116;SDS011;32591;48.102;11.772;2023-03-31T13:45:49;2.47;;;1.70;;
46116;SDS011;32591;48.102;11.772;2023-03-31T13:48:34;1.80;;;0.70;;
46116;SDS011;32591;48.102;11.772;2023-03-31T13:51:13;1.65;;;0.80;;
46116;SDS011;32591;48.102;11.772;2023-03-31T13:53:53;2.58;;;0.82;;
46116;SDS011;32591;48.102;11.772;2023-03-31T13:57:17;0.70;;;0.70;;
46116;SDS011;32591;48.102;11.772;2023-03-31T14:00:24;1.35;;;0.98;;
46116;SDS011;32591;48.102;11.772;2023-03-31T14:03:09;2.92;;;0.85;;
46116;SDS011;32591;48.102;11.772;2023-03-31T14:05:49;1.88;;;0.98;;
46116;SDS011;32591;48.102;11.772;2023-03-31T14:08:28;2.88;;;0.82;;
46116;SDS011;32591;48.102;11.772;2023-03-31T14:11:15;4.38;;;1.13;;
46116;SDS011;32591;48.102;11.772;2023-03-31T14:13:57;3.47;;;1.80;;
46116;SDS011;32591;48.102;11.772;2023-03-31T14:16:25;2.05;;;1.10;;
46116;SDS011;32591;48.102;11.772;2023-03-31T14:18:58;3.65;;;1.67;;
46116;SDS011;32591;48.102;11.772;2023-03-31T14:21:45;2.58;;;1.10;;
46116;SDS011;32591;48.102;11.772;2023-03-31T14:24:18;1.83;;;1.00;;
46116;SDS011;32591;48.102;11.772;2023-03-31T14:26:53;3.03;;;1.40;;
46116;SDS011;32591;48.102;11.772;2023-03-31T14:29:30;3.20;;;1.20;;
46116;SDS011;32591;48.102;11.772;2023-03-31T14:32:06;6.57;;;1.60;;
46116;SDS011;32591;48.102;11.772;2023-03-31T14:34:47;5.03;;;0.82;;
46116;SDS011;32591;48.102;11.772;2023-03-31T14:37:29;3.58;;;1.65;;
46116;SDS011;32591;48.102;11.772;2023-03-31T14:39:56;3.42;;;1.20;;
46116;SDS011;32591;48.102;11.772;2023-03-31T14:42:25;3.10;;;1.85;;
46116;SDS011;32591;48.102;11.772;2023-03-31T14:45:00;3.13;;;1.40;;
46116;SDS011;32591;48.102;11.772;2023-03-31T14:47:30;2.95;;;1.70;;
46116;SDS011;32591;48.102;11.772;2023-03-31T14:49:59;2.92;;;1.55;;
46116;SDS011;32591;48.102;11.772;2023-03-31T14:52:28;3.20;;;1.10;;
46116;SDS011;32591;48.102;11.772;2023-03-31T14:54:58;4.47;;;1.10;;
46116;SDS011;32591;48.102;11.772;2023-03-31T14:57:26;1.90;;;0.60;;
46116;SDS011;32591;48.102;11.772;2023-03-31T14:59:58;2.35;;;0.50;;
46116;SDS011;32591;48.102;11.772;2023-03-31T15:02:29;1.85;;;0.57;;
46116;SDS011;32591;48.102;11.772;2023-03-31T15:05:01;8.80;;;0.93;;
46116;SDS011;32591;48.102;11.772;2023-03-31T15:07:31;0.93;;;0.50;;
46116;SDS011;32591;48.102;11.772;2023-03-31T15:09:59;1.25;;;0.50;;
46116;SDS011;32591;48.102;11.772;2023-03-31T15:12:27;1.48;;;0.50;;
46116;SDS011;32591;48.102;11.772;2023-03-31T15:14:56;1.38;;;0.32;;
46116;SDS011;32591;48.102;11.772;2023-03-31T15:17:28;1.42;;;0.85;;
46116;SDS011;32591;48.102;11.772;2023-03-31T15:19:57;1.92;;;0.57;;
46116;SDS011;32591;48.102;11.772;2023-03-31T15:22:29;1.50;;;0.60;;
46116;SDS011;32591;48.102;11.772;2023-03-31T15:24:56;2.65;;;0.57;;
46116;SDS011;32591;48.102;11.772;2023-03-31T15:27:27;1.63;;;0.85;;
46116;SDS011;32591;48.102;11.772;2023-03-31T15:29:59;1.67;;;0.40;;
46116;SDS011;32591;48.102;11.772;2023-03-31T15:32:30;1.85;;;0.85;;
46116;SDS011;32591;48.102;11.772;2023-03-31T15:35:00;3.20;;;0.82;;
46116;SDS011;32591;48.102;11.772;2023-03-31T15:37:32;2.67;;;0.70;;
46116;SDS011;32591;48.102;11.772;2023-03-31T15:40:08;1.23;;;0.40;;
46116;SDS011;32591;48.102;11.772;2023-03-31T15:42:44;1.88;;;0.80;;
46116;SDS011;32591;48.102;11.772;2023-03-31T15:45:24;1.05;;;0.70;;
46116;SDS011;32591;48.102;11.772;2023-03-31T15:48:04;4.80;;;2.08;;